Time;durP1;ratioP1;P1;durP2;ratioP2;P2;SDS_P1;SDS_P2;PMS_P1;PMS_P2;Temp;Humidity;BMP_temperature;BMP_pressure;BME280_temperature;BME280_humidity;BME280_pressure;Samples;Min_cycle;Max_cycle;Signal;HPM_P1;HPM_P2
2022/11/03 00:01:39;;;;;;;8.52;4.90;;;19.50;99.90;;;;;;4146625;28;20217;-75
2022/11/03 00:03:41;;;;;;;9.07;5.28;;;19.50;99.90;;;;;;4140602;28;20241;-75
2022/11/03 00:08:05;;;;;;;7.38;4.85;;;19.50;99.90;;;;;;4149372;28;20657;-75
2022/11/03 00:10:08;;;;;;;12.20;5.43;;;19.50;99.90;;;;;;4149493;28;20275;-75
2022/11/03 00:12:10;;;;;;;9.50;5.05;;;19.50;99.90;;;;;;4152833;28;20295;-75
2022/11/03 00:14:13;;;;;;;8.27;4.75;;;19.50;99.90;;;;;;4146091;28;20728;-75
2022/11/03 00:16:16;;;;;;;11.27;5.57;;;19.40;99.90;;;;;;4146270;28;20213;-75
2022/11/03 00:18:18;;;;;;;10.20;5.10;;;19.50;99.90;;;;;;4144483;28;20263;-75
2022/11/03 00:20:20;;;;;;;9.52;4.70;;;19.40;99.90;;;;;;4145637;28;20221;-75
2022/11/03 00:22:22;;;;;;;10.93;5.38;;;19.40;99.90;;;;;;4144267;28;20213;-75
2022/11/03 00:24:26;;;;;;;11.38;4.88;;;19.50;99.90;;;;;;4145107;28;20217;-75
2022/11/03 00:26:29;;;;;;;9.95;5.43;;;19.40;99.90;;;;;;4144699;28;20217;-75
2022/11/03 00:28:33;;;;;;;10.07;5.35;;;19.50;99.90;;;;;;4144751;28;20213;-74
2022/11/03 00:30:35;;;;;;;9.05;5.20;;;19.50;99.90;;;;;;4144950;28;20577;-75
2022/11/03 00:32:37;;;;;;;9.70;4.85;;;19.40;99.90;;;;;;4144708;28;20217;-75
2022/11/03 00:34:39;;;;;;;7.65;4.82;;;19.40;99.90;;;;;;4142912;28;20222;-75
2022/11/03 00:36:44;;;;;;;8.82;4.68;;;19.40;99.90;;;;;;4144774;28;20218;-74
2022/11/03 00:38:46;;;;;;;9.80;4.90;;;19.50;99.90;;;;;;4144980;28;20662;-75
2022/11/03 00:40:54;;;;;;;11.13;4.95;;;19.40;99.90;;;;;;4144916;28;20217;-75
2022/11/03 00:42:56;;;;;;;10.02;5.22;;;19.40;99.90;;;;;;4143600;28;20275;-75
2022/11/03 00:44:59;;;;;;;8.90;4.85;;;19.50;99.90;;;;;;4144282;28;20579;-75
2022/11/03 00:47:01;;;;;;;9.07;4.93;;;19.40;99.90;;;;;;4143546;28;20826;-75
2022/11/03 00:49:04;;;;;;;9.55;4.88;;;19.40;99.90;;;;;;4143705;28;20221;-74
2022/11/03 00:51:09;;;;;;;9.77;5.18;;;19.40;99.90;;;;;;4143037;28;20241;-75
2022/11/03 00:53:11;;;;;;;8.98;4.70;;;19.50;99.90;;;;;;4144743;28;20290;-75
2022/11/03 00:55:14;;;;;;;9.80;4.80;;;19.40;99.90;;;;;;4145119;28;20232;-75
2022/11/03 00:57:18;;;;;;;8.40;4.82;;;19.40;99.90;;;;;;4144507;28;20217;-75
2022/11/03 00:59:20;;;;;;;9.93;5.50;;;19.40;99.90;;;;;;4143579;28;20217;-75
2022/11/03 01:01:24;;;;;;;9.88;4.65;;;19.40;99.90;;;;;;4143227;28;20209;-75
2022/11/03 01:03:27;;;;;;;8.43;4.90;;;19.40;99.90;;;;;;4143954;28;20642;-75
2022/11/03 01:07:45;;;;;;;10.05;5.03;;;19.40;99.90;;;;;;4120886;28;20686;-75
2022/11/03 01:09:47;;;;;;;8.30;4.32;;;19.40;99.90;;;;;;4143973;28;20578;-75
2022/11/03 01:11:56;;;;;;;9.25;4.70;;;19.40;99.90;;;;;;4144505;28;20307;-75
2022/11/03 01:14:00;;;;;;;8.50;4.53;;;19.50;99.90;;;;;;4142049;28;20217;-75
2022/11/03 01:16:03;;;;;;;10.60;4.63;;;19.50;99.90;;;;;;4142613;28;20263;-74
2022/11/03 01:18:05;;;;;;;8.20;4.10;;;19.40;99.90;;;;;;4143801;28;20271;-75
2022/11/03 01:20:08;;;;;;;7.82;4.30;;;19.40;99.90;;;;;;4145128;28;20221;-75
2022/11/03 01:22:12;;;;;;;7.68;4.53;;;19.40;99.90;;;;;;4145451;28;20256;-75
2022/11/03 01:24:14;;;;;;;9.10;5.05;;;19.40;99.90;;;;;;4145711;28;20260;-75
2022/11/03 01:26:17;;;;;;;9.10;4.60;;;19.40;99.90;;;;;;4147593;28;20264;-75
2022/11/03 01:28:19;;;;;;;9.13;4.50;;;19.40;99.90;;;;;;4139153;28;20480;-75
2022/11/03 01:30:23;;;;;;;8.43;4.43;;;19.40;99.90;;;;;;4153425;28;20737;-75
2022/11/03 01:32:25;;;;;;;9.20;4.28;;;19.40;99.90;;;;;;4145064;28;20719;-75
2022/11/03 01:34:27;;;;;;;8.27;4.50;;;19.40;99.90;;;;;;4145077;28;20280;-75
2022/11/03 01:36:29;;;;;;;9.23;4.50;;;19.40;99.90;;;;;;4146857;28;20225;-75
2022/11/03 01:38:33;;;;;;;9.02;4.78;;;19.40;99.90;;;;;;4145393;28;20209;-75
2022/11/03 01:40:35;;;;;;;7.93;3.97;;;19.40;99.90;;;;;;4145258;28;20212;-75
2022/11/03 01:42:37;;;;;;;7.60;4.53;;;19.40;99.90;;;;;;4144137;28;20275;-75
2022/11/03 01:44:45;;;;;;;9.68;4.70;;;19.40;99.90;;;;;;4145125;28;20279;-75
2022/11/03 01:46:51;;;;;;;8.48;4.68;;;19.40;99.90;;;;;;4145711;28;20286;-74
2022/11/03 01:48:59;;;;;;;9.00;4.80;;;19.40;99.90;;;;;;4149972;28;20270;-75
2022/11/03 01:51:04;;;;;;;8.38;4.72;;;19.40;99.90;;;;;;4143627;28;20216;-75
2022/11/03 01:53:07;;;;;;;9.50;4.60;;;19.40;99.90;;;;;;4145421;28;20674;-75
2022/11/03 01:55:13;;;;;;;9.30;4.75;;;19.40;99.90;;;;;;4147272;28;20266;-75
2022/11/03 01:57:19;;;;;;;8.55;4.60;;;19.40;99.90;;;;;;4145065;28;20217;-75
2022/11/03 01:59:23;;;;;;;7.63;4.55;;;19.40;99.90;;;;;;4143494;28;20276;-75
2022/11/03 02:01:26;;;;;;;9.20;4.50;;;19.40;99.90;;;;;;4143514;28;20728;-75
2022/11/03 02:03:34;;;;;;;9.38;4.50;;;19.40;99.90;;;;;;4144721;28;20295;-75
2022/11/03 02:05:37;;;;;;;9.57;4.60;;;19.40;99.90;;;;;;4146425;28;20207;-75
2022/11/03 02:07:44;;;;;;;7.95;4.35;;;19.40;99.90;;;;;;4145186;28;20225;-75
2022/11/03 02:09:46;;;;;;;8.95;4.10;;;19.30;99.90;;;;;;4145517;28;20280;-75
2022/11/03 02:12:07;;;;;;;6.63;4.00;;;19.30;99.90;;;;;;4147892;28;20287;-75
2022/11/03 02:14:12;;;;;;;6.88;4.22;;;19.40;99.90;;;;;;4147200;28;20216;-75
2022/11/03 02:16:15;;;;;;;7.95;4.18;;;19.40;99.90;;;;;;4143959;28;20213;-75
2022/11/03 02:18:21;;;;;;;7.63;3.90;;;19.40;99.90;;;;;;4148142;28;20612;-75
2022/11/03 02:20:28;;;;;;;8.07;3.95;;;19.40;99.90;;;;;;4140097;28;20715;-75
2022/11/03 02:23:03;;;;;;;8.00;4.03;;;19.30;99.90;;;;;;4147962;28;20213;-75
2022/11/03 02:25:16;;;;;;;7.25;4.18;;;19.40;99.90;;;;;;4075369;29;20288;-75
2022/11/03 02:27:20;;;;;;;7.05;3.90;;;19.40;99.90;;;;;;4118172;28;20279;-75
2022/11/03 02:29:22;;;;;;;7.35;3.65;;;19.40;99.90;;;;;;4143929;28;20646;-75
2022/11/03 02:31:37;;;;;;;8.80;4.07;;;19.30;99.90;;;;;;4145627;28;20317;-75
2022/11/03 02:33:48;;;;;;;8.45;3.90;;;19.30;99.90;;;;;;4147359;28;20243;-75
2022/11/03 02:35:55;;;;;;;8.32;4.10;;;19.30;99.90;;;;;;4147288;28;20251;-75
2022/11/03 02:38:00;;;;;;;7.38;4.13;;;19.30;99.90;;;;;;4146390;28;20291;-75
2022/11/03 02:40:06;;;;;;;8.00;3.88;;;19.30;99.90;;;;;;4146525;28;20209;-75
2022/11/03 02:42:12;;;;;;;8.07;4.00;;;19.30;99.90;;;;;;4143899;28;20205;-75
2022/11/03 02:44:18;;;;;;;9.05;4.50;;;19.40;99.90;;;;;;4146369;28;20213;-75
2022/11/03 02:46:22;;;;;;;9.73;4.05;;;19.30;99.90;;;;;;4145918;28;20221;-75
2022/11/03 02:48:24;;;;;;;8.50;3.85;;;19.40;99.90;;;;;;4154677;28;20209;-75
2022/11/03 02:50:28;;;;;;;7.82;3.95;;;19.40;99.90;;;;;;4146174;28;20213;-75
2022/11/03 02:52:36;;;;;;;6.65;3.97;;;19.40;99.90;;;;;;4144594;28;20913;-75
2022/11/03 02:54:44;;;;;;;7.03;4.07;;;19.30;99.90;;;;;;4146044;28;20251;-75
2022/11/03 02:56:51;;;;;;;7.45;3.88;;;19.30;99.90;;;;;;4146218;28;20208;-75
2022/11/03 02:59:01;;;;;;;8.55;3.95;;;19.30;99.90;;;;;;4146098;28;20678;-75
2022/11/03 03:01:13;;;;;;;7.65;3.65;;;19.30;99.90;;;;;;4146449;28;20274;-75
2022/11/03 03:03:21;;;;;;;7.47;3.28;;;19.40;99.90;;;;;;4145755;28;20574;-75
2022/11/03 03:05:27;;;;;;;8.57;3.95;;;19.30;99.90;;;;;;4146563;28;20216;-75
2022/11/03 03:07:33;;;;;;;6.32;3.72;;;19.30;99.90;;;;;;4146162;28;20264;-75
2022/11/03 03:09:39;;;;;;;5.47;3.45;;;19.30;99.90;;;;;;4145293;28;20279;-75
2022/11/03 03:11:45;;;;;;;8.45;3.83;;;19.30;99.90;;;;;;4146187;28;20255;-75
2022/11/03 03:13:47;;;;;;;8.27;4.03;;;19.30;99.90;;;;;;4146573;28;20260;-75
2022/11/03 03:16:00;;;;;;;5.93;3.53;;;19.30;99.90;;;;;;4148009;28;20295;-75
2022/11/03 03:18:12;;;;;;;5.63;3.22;;;19.30;99.90;;;;;;4144423;28;20213;-75
2022/11/03 03:20:20;;;;;;;6.68;3.65;;;19.30;99.90;;;;;;4151111;28;20224;-75
2022/11/03 03:22:28;;;;;;;7.60;3.60;;;19.30;99.90;;;;;;4148437;28;20255;-75
2022/11/03 03:24:37;;;;;;;7.95;3.83;;;19.30;99.90;;;;;;4145918;28;21262;-75
2022/11/03 03:26:44;;;;;;;9.07;4.05;;;19.30;99.90;;;;;;4145634;28;20267;-76
2022/11/03 03:28:51;;;;;;;8.90;3.90;;;19.30;99.90;;;;;;4146081;28;20978;-75
2022/11/03 03:30:56;;;;;;;6.35;3.78;;;19.30;99.90;;;;;;4145441;28;20220;-75
2022/11/03 03:33:02;;;;;;;7.22;3.90;;;19.30;99.90;;;;;;4145627;28;20241;-75
2022/11/03 03:35:09;;;;;;;7.60;3.75;;;19.30;99.90;;;;;;4146558;28;20221;-75
2022/11/03 03:37:16;;;;;;;8.98;4.28;;;19.30;99.90;;;;;;4146254;28;20228;-75
2022/11/03 03:39:21;;;;;;;7.82;3.58;;;19.30;99.90;;;;;;4143491;28;20217;-75
2022/11/03 03:41:26;;;;;;;6.57;3.83;;;19.30;99.90;;;;;;4145726;28;20613;-75
2022/11/03 03:43:30;;;;;;;6.43;3.60;;;19.30;99.90;;;;;;4145583;28;20217;-75
2022/11/03 03:45:35;;;;;;;5.40;3.17;;;19.30;99.90;;;;;;4145483;28;20592;-75
2022/11/03 03:47:37;;;;;;;6.15;3.35;;;19.30;99.90;;;;;;4146718;28;20213;-75
2022/11/03 03:49:40;;;;;;;6.60;3.70;;;19.30;99.90;;;;;;4143503;28;20256;-75
2022/11/03 03:51:44;;;;;;;5.80;3.15;;;19.30;99.90;;;;;;4143091;28;20209;-75
2022/11/03 03:53:50;;;;;;;6.00;3.22;;;19.30;99.90;;;;;;4145255;28;20221;-75
2022/11/03 03:55:53;;;;;;;6.78;3.30;;;19.30;99.90;;;;;;4145262;28;20275;-75
2022/11/03 03:57:55;;;;;;;5.82;3.20;;;19.30;99.90;;;;;;4144852;28;20221;-75
2022/11/03 03:59:58;;;;;;;9.05;3.83;;;19.30;99.90;;;;;;4142523;28;20285;-75
2022/11/03 04:02:01;;;;;;;6.82;3.22;;;19.30;99.90;;;;;;4144639;28;20251;-75
2022/11/03 04:04:04;;;;;;;6.38;3.20;;;19.30;99.90;;;;;;4145271;28;20271;-75
2022/11/03 04:06:06;;;;;;;6.05;3.13;;;19.30;99.90;;;;;;4145721;28;20274;-75
2022/11/03 04:08:10;;;;;;;8.70;3.33;;;19.30;99.90;;;;;;4143768;28;20243;-75
2022/11/03 04:10:12;;;;;;;5.88;3.22;;;19.30;99.90;;;;;;4141593;28;20259;-75
2022/11/03 04:23:54;;;;;;;6.60;3.58;;;19.30;99.90;;;;;;4143318;28;20189;-75
2022/11/03 04:25:57;;;;;;;6.53;3.10;;;19.30;99.90;;;;;;4144738;28;20233;-75
2022/11/03 04:27:59;;;;;;;8.32;3.17;;;19.30;99.90;;;;;;4144948;28;20247;-75
2022/11/03 04:30:10;;;;;;;6.55;3.13;;;19.30;99.90;;;;;;4144752;28;20249;-75
2022/11/03 04:32:16;;;;;;;7.05;3.20;;;19.30;99.90;;;;;;4145021;28;20220;-75
2022/11/03 04:34:18;;;;;;;7.45;3.20;;;19.30;99.90;;;;;;4144929;28;20260;-75
2022/11/03 04:36:22;;;;;;;5.85;3.20;;;19.30;99.90;;;;;;4144839;28;20213;-75
2022/11/03 04:38:26;;;;;;;5.47;3.50;;;19.30;99.90;;;;;;4145106;28;20221;-75
2022/11/03 04:40:30;;;;;;;6.40;3.20;;;19.30;99.90;;;;;;4144456;28;20548;-75
2022/11/03 04:42:34;;;;;;;5.90;2.88;;;19.30;99.90;;;;;;4142498;28;20235;-74
2022/11/03 04:44:37;;;;;;;6.85;2.78;;;19.20;99.90;;;;;;4144229;28;20724;-74
2022/11/03 04:46:39;;;;;;;8.10;3.08;;;19.30;99.90;;;;;;4145107;28;20287;-75
2022/11/03 04:48:42;;;;;;;5.13;3.08;;;19.20;99.90;;;;;;4143907;28;20221;-75
2022/11/03 04:50:47;;;;;;;6.30;3.03;;;19.30;99.90;;;;;;4144786;28;20300;-74
2022/11/03 04:52:55;;;;;;;6.32;2.90;;;19.20;99.90;;;;;;4144673;28;20291;-74
2022/11/03 04:54:58;;;;;;;5.13;2.65;;;19.20;99.90;;;;;;4144522;28;20216;-75
2022/11/03 04:57:05;;;;;;;5.10;2.83;;;19.20;99.90;;;;;;4144324;28;20225;-74
2022/11/03 04:59:11;;;;;;;6.28;3.28;;;19.20;99.90;;;;;;4142951;28;20248;-74
2022/11/03 05:01:15;;;;;;;7.93;3.50;;;19.20;99.90;;;;;;4144500;28;20625;-75
2022/11/03 05:03:22;;;;;;;6.45;3.25;;;19.30;99.90;;;;;;4144015;28;20280;-75
2022/11/03 05:05:26;;;;;;;6.50;2.92;;;19.30;99.90;;;;;;4139173;28;20251;-75
2022/11/03 05:07:33;;;;;;;6.50;3.03;;;19.30;99.90;;;;;;4145729;28;20642;-75
2022/11/03 05:09:36;;;;;;;5.57;2.70;;;19.20;99.90;;;;;;4144382;28;20224;-74
2022/11/03 05:11:41;;;;;;;7.25;3.42;;;19.20;99.90;;;;;;4144383;28;20224;-74
2022/11/03 05:13:45;;;;;;;5.00;2.80;;;19.30;99.90;;;;;;4140878;28;20233;-74
2022/11/03 05:15:49;;;;;;;6.63;2.92;;;19.30;99.90;;;;;;4142206;28;20287;-74
2022/11/03 05:17:51;;;;;;;4.95;2.88;;;19.20;99.90;;;;;;4143138;28;20623;-74
2022/11/03 05:19:57;;;;;;;7.28;2.90;;;19.30;99.90;;;;;;4145745;28;20208;-74
2022/11/03 05:22:01;;;;;;;5.07;2.80;;;19.20;99.90;;;;;;4148849;28;20217;-74
2022/11/03 05:24:11;;;;;;;6.25;3.08;;;19.20;99.90;;;;;;4144467;28;20236;-74
2022/11/03 05:26:19;;;;;;;8.40;3.38;;;19.20;99.90;;;;;;4144331;28;20626;-74
2022/11/03 05:28:26;;;;;;;5.45;2.85;;;19.20;99.90;;;;;;4146186;28;20216;-74
2022/11/03 05:30:30;;;;;;;6.90;2.70;;;19.20;99.90;;;;;;4143700;28;20267;-74
2022/11/03 05:32:34;;;;;;;6.28;3.10;;;19.20;99.90;;;;;;4142994;28;20209;-74
2022/11/03 05:34:42;;;;;;;5.78;3.08;;;19.20;99.90;;;;;;4143130;28;20221;-74
2022/11/03 05:36:44;;;;;;;6.38;2.90;;;19.20;99.90;;;;;;4144550;28;20263;-74
2022/11/03 05:38:47;;;;;;;7.15;2.83;;;19.20;99.90;;;;;;4144355;28;20214;-74
2022/11/03 05:40:52;;;;;;;5.50;2.80;;;19.20;99.90;;;;;;4144875;28;20209;-74
2022/11/03 05:42:58;;;;;;;5.85;2.70;;;19.20;99.90;;;;;;4144035;28;20272;-74
2022/11/03 05:45:02;;;;;;;4.22;2.75;;;19.20;99.90;;;;;;4145359;28;20213;-74
2022/11/03 05:47:13;;;;;;;4.40;2.38;;;19.20;99.90;;;;;;4148156;28;20271;-74
2022/11/03 05:49:16;;;;;;;5.03;2.63;;;19.20;99.90;;;;;;4144230;28;20247;-75
2022/11/03 05:51:22;;;;;;;6.10;3.00;;;19.20;99.90;;;;;;4147234;28;20271;-74
2022/11/03 05:53:29;;;;;;;4.28;2.50;;;19.20;99.90;;;;;;4147539;28;20236;-74
2022/11/03 05:55:34;;;;;;;8.30;2.90;;;19.20;99.90;;;;;;4147623;28;20229;-75
2022/11/03 05:57:37;;;;;;;5.38;3.05;;;19.20;99.90;;;;;;4147705;28;20224;-74
2022/11/03 05:59:39;;;;;;;4.68;2.50;;;19.20;99.90;;;;;;4146713;28;20225;-74
2022/11/03 06:01:42;;;;;;;7.20;3.10;;;19.10;99.90;;;;;;4152756;28;20279;-74
2022/11/03 06:03:46;;;;;;;4.82;2.95;;;19.20;99.90;;;;;;4147078;28;20229;-74
2022/11/03 06:05:49;;;;;;;4.80;2.67;;;19.20;99.90;;;;;;4144887;28;20279;-74
2022/11/03 06:07:54;;;;;;;6.22;2.75;;;19.20;99.90;;;;;;4145576;28;20225;-74
2022/11/03 06:09:57;;;;;;;6.00;2.83;;;19.20;99.90;;;;;;4146541;28;20221;-74
2022/11/03 06:12:02;;;;;;;5.38;2.42;;;19.20;99.90;;;;;;4147575;28;20229;-74
2022/11/03 06:14:14;;;;;;;5.80;2.70;;;19.20;99.90;;;;;;4147092;28;20228;-74
2022/11/03 06:16:42;;;;;;;5.45;2.85;;;19.20;99.90;;;;;;4147100;28;20240;-74
2022/11/03 06:18:46;;;;;;;5.45;2.47;;;19.20;99.90;;;;;;4146588;28;20217;-74
2022/11/03 06:20:52;;;;;;;4.72;2.78;;;19.20;99.90;;;;;;4149327;28;20674;-74
2022/11/03 06:22:56;;;;;;;5.18;2.45;;;19.20;99.90;;;;;;4146507;28;20217;-74
2022/11/03 06:25:01;;;;;;;6.03;2.85;;;19.20;99.90;;;;;;4146521;28;20268;-74
2022/11/03 06:27:03;;;;;;;5.10;2.47;;;19.20;99.90;;;;;;4147839;28;20217;-74
2022/11/03 06:29:09;;;;;;;5.80;2.58;;;19.20;99.90;;;;;;4148083;28;20217;-74
2022/11/03 06:31:18;;;;;;;4.90;2.47;;;19.20;99.90;;;;;;4146657;28;20224;-74
2022/11/03 06:33:24;;;;;;;7.07;2.90;;;19.20;99.90;;;;;;4146500;28;20271;-74
2022/11/03 06:35:28;;;;;;;6.57;2.50;;;19.20;99.90;;;;;;4146807;28;20279;-74
2022/11/03 06:37:32;;;;;;;4.30;2.15;;;19.20;99.90;;;;;;4145479;28;20243;-74
2022/11/03 06:39:34;;;;;;;6.32;2.75;;;19.20;99.90;;;;;;4146007;28;20221;-74
2022/11/03 06:41:37;;;;;;;6.50;2.53;;;19.20;99.90;;;;;;4146600;28;20221;-74
2022/11/03 06:43:41;;;;;;;5.28;2.63;;;19.20;99.90;;;;;;4147355;28;20335;-74
2022/11/03 06:45:50;;;;;;;5.78;2.40;;;19.20;99.90;;;;;;4147050;28;20268;-74
2022/11/03 06:47:54;;;;;;;5.10;2.60;;;19.20;99.90;;;;;;4146516;28;20243;-74
2022/11/03 06:49:58;;;;;;;7.20;2.58;;;19.20;99.90;;;;;;4143398;28;20229;-74
2022/11/03 06:52:20;;;;;;;5.35;2.53;;;19.20;99.90;;;;;;4145640;28;20609;-75
2022/11/03 06:54:23;;;;;;;7.25;3.08;;;19.20;99.90;;;;;;4144723;28;20328;-74
2022/11/03 06:56:28;;;;;;;4.15;2.38;;;19.30;99.90;;;;;;4142059;28;20221;-74
2022/11/03 06:58:34;;;;;;;3.33;1.92;;;19.20;99.90;;;;;;4148821;28;20217;-74
2022/11/03 07:00:39;;;;;;;5.47;2.55;;;19.20;99.90;;;;;;4146476;28;20217;-74
2022/11/03 07:02:54;;;;;;;4.68;2.47;;;19.20;99.90;;;;;;4145986;28;20229;-74
2022/11/03 07:04:57;;;;;;;5.60;2.40;;;19.20;99.90;;;;;;4144338;28;20232;-74
2022/11/03 07:07:02;;;;;;;3.97;2.20;;;19.20;99.90;;;;;;4147660;28;20221;-74
2022/11/03 07:09:08;;;;;;;4.65;2.20;;;19.20;99.90;;;;;;4146938;28;20279;-75
2022/11/03 07:11:15;;;;;;;6.95;2.70;;;19.20;99.90;;;;;;4145973;28;20239;-74
2022/11/03 07:13:22;;;;;;;5.85;2.28;;;19.20;99.90;;;;;;4145744;28;20566;-75
2022/11/03 07:15:29;;;;;;;4.65;2.00;;;19.20;99.90;;;;;;4147001;28;20205;-74
2022/11/03 07:17:31;;;;;;;5.07;2.45;;;19.20;99.90;;;;;;4145769;28;20271;-74
2022/11/03 07:19:36;;;;;;;5.03;2.10;;;19.20;99.90;;;;;;4145245;28;20244;-74
2022/11/03 07:21:43;;;;;;;5.13;2.75;;;19.20;99.90;;;;;;4145656;28;20217;-74
2022/11/03 07:23:46;;;;;;;5.10;2.35;;;19.20;99.90;;;;;;4145638;28;20243;-75
2022/11/03 07:25:52;;;;;;;6.07;2.50;;;19.20;99.90;;;;;;4146957;28;20229;-74
2022/11/03 07:27:56;;;;;;;6.47;2.40;;;19.20;99.90;;;;;;4144012;28;20221;-74
2022/11/03 07:30:00;;;;;;;5.18;2.40;;;19.20;99.90;;;;;;4145799;28;20267;-75
2022/11/03 07:32:09;;;;;;;4.45;2.15;;;19.20;99.90;;;;;;4144949;28;20640;-75
2022/11/03 07:34:16;;;;;;;3.78;2.00;;;19.20;99.90;;;;;;4144912;28;20259;-74
2022/11/03 07:36:21;;;;;;;6.30;2.20;;;19.20;99.90;;;;;;4145155;28;20213;-74
2022/11/03 07:38:26;;;;;;;4.15;2.33;;;19.20;99.90;;;;;;4145322;28;20213;-75
2022/11/03 07:40:32;;;;;;;4.10;2.08;;;19.20;99.90;;;;;;4144812;28;20260;-75
2022/11/03 07:42:35;;;;;;;3.58;1.85;;;19.20;99.90;;;;;;4143297;28;20213;-75
2022/11/03 07:44:38;;;;;;;5.05;2.50;;;19.20;99.90;;;;;;4144425;28;20248;-74
2022/11/03 07:46:42;;;;;;;3.55;2.13;;;19.20;99.90;;;;;;4144937;28;20217;-74
2022/11/03 07:48:46;;;;;;;5.68;2.35;;;19.20;99.90;;;;;;4145419;28;20275;-74
2022/11/03 07:50:51;;;;;;;4.53;2.20;;;19.20;99.90;;;;;;4143811;28;20267;-74
2022/11/03 07:52:53;;;;;;;4.68;2.25;;;19.20;99.90;;;;;;4145455;28;20225;-74
2022/11/03 07:54:56;;;;;;;4.03;2.17;;;19.20;99.90;;;;;;4142480;28;21270;-74
2022/11/03 07:57:01;;;;;;;5.35;2.03;;;19.20;99.90;;;;;;4144650;28;20291;-74
2022/11/03 07:59:14;;;;;;;5.03;2.33;;;19.20;99.90;;;;;;4143514;28;20221;-74
2022/11/03 08:01:24;;;;;;;4.07;2.20;;;19.20;99.90;;;;;;4145073;28;20249;-74
2022/11/03 08:03:33;;;;;;;4.82;2.22;;;19.20;99.90;;;;;;4141074;28;20635;-75
2022/11/03 08:05:35;;;;;;;7.60;2.58;;;19.20;99.90;;;;;;4140102;28;20205;-74
2022/11/03 08:07:38;;;;;;;6.20;2.30;;;19.20;99.90;;;;;;4145214;28;20221;-74
2022/11/03 08:09:40;;;;;;;7.47;2.38;;;19.20;99.90;;;;;;4143734;28;20618;-75
2022/11/03 08:11:42;;;;;;;7.35;2.90;;;19.20;99.90;;;;;;4143787;28;20222;-74
2022/11/03 08:13:44;;;;;;;5.00;2.40;;;19.30;99.90;;;;;;4139989;28;21154;-75
2022/11/03 08:15:48;;;;;;;6.15;2.40;;;19.30;99.90;;;;;;4144256;28;20233;-74
2022/11/03 08:17:50;;;;;;;6.25;2.45;;;19.30;99.90;;;;;;4137351;28;20213;-74
2022/11/03 08:19:53;;;;;;;8.48;3.08;;;19.20;99.90;;;;;;4136092;28;20283;-74
2022/11/03 08:21:55;;;;;;;7.57;2.85;;;19.20;99.90;;;;;;4138428;28;20225;-75
2022/11/03 08:23:57;;;;;;;9.50;2.70;;;19.30;99.90;;;;;;4132391;28;20217;-76
2022/11/03 08:25:59;;;;;;;5.15;2.65;;;19.30;99.90;;;;;;4133704;28;20355;-75
2022/11/03 08:28:02;;;;;;;5.78;2.80;;;19.30;99.90;;;;;;4141032;28;20244;-73
2022/11/03 08:30:05;;;;;;;6.57;3.00;;;19.40;99.90;;;;;;4141652;28;20224;-74
2022/11/03 08:32:09;;;;;;;6.10;2.85;;;19.40;99.90;;;;;;4142496;28;20226;-72
2022/11/03 08:34:11;;;;;;;4.95;2.90;;;19.40;99.90;;;;;;4141311;28;20217;-73
2022/11/03 08:36:14;;;;;;;6.97;2.90;;;19.40;99.90;;;;;;4142298;28;20263;-73
2022/11/03 08:38:16;;;;;;;9.35;3.05;;;19.50;99.90;;;;;;4139866;28;20262;-73
2022/11/03 08:40:18;;;;;;;8.00;3.25;;;19.40;99.90;;;;;;4142359;28;20623;-73
2022/11/03 08:42:20;;;;;;;8.43;3.17;;;19.40;99.90;;;;;;4136166;28;20213;-73
2022/11/03 08:44:23;;;;;;;9.85;3.28;;;19.40;99.90;;;;;;4143605;28;20267;-73
2022/11/03 08:46:25;;;;;;;5.70;2.67;;;19.50;99.90;;;;;;4143099;28;20217;-73
2022/11/03 08:48:32;;;;;;;7.38;3.17;;;19.60;99.90;;;;;;4145628;28;20272;-73
2022/11/03 08:50:34;;;;;;;6.35;2.90;;;19.60;99.90;;;;;;4137391;28;20292;-74
2022/11/03 08:52:36;;;;;;;6.03;3.10;;;19.60;99.90;;;;;;4143959;28;20696;-74
2022/11/03 08:54:39;;;;;;;7.75;2.90;;;19.60;99.90;;;;;;4143450;28;20232;-74
2022/11/03 08:56:42;;;;;;;8.38;3.22;;;19.70;99.90;;;;;;4135224;28;20630;-74
2022/11/03 08:58:45;;;;;;;10.13;3.25;;;19.70;99.90;;;;;;4136840;28;20353;-74
2022/11/03 09:00:47;;;;;;;8.77;3.03;;;19.70;99.90;;;;;;4133487;28;20224;-74
2022/11/03 09:02:52;;;;;;;8.10;3.70;;;19.70;99.90;;;;;;4136292;28;20287;-73
2022/11/03 09:04:56;;;;;;;6.85;3.25;;;19.80;99.90;;;;;;4133689;28;20264;-74
2022/11/03 09:06:59;;;;;;;8.02;3.40;;;19.70;99.90;;;;;;4137753;28;20217;-73
2022/11/03 09:09:01;;;;;;;8.68;3.58;;;19.70;99.90;;;;;;4132965;28;20666;-74
2022/11/03 09:11:04;;;;;;;10.40;3.58;;;19.70;99.90;;;;;;4141647;28;20666;-74
2022/11/03 09:13:06;;;;;;;10.90;3.30;;;19.80;99.90;;;;;;4144337;28;20279;-73
2022/11/03 09:15:09;;;;;;;8.93;3.75;;;19.80;99.90;;;;;;4139064;28;20242;-74
2022/11/03 09:17:11;;;;;;;8.15;3.65;;;19.80;99.90;;;;;;4134316;28;20240;-74
2022/11/03 09:19:14;;;;;;;9.93;3.92;;;19.80;99.90;;;;;;4138152;28;20307;-71
2022/11/03 09:21:17;;;;;;;7.53;3.45;;;19.80;99.90;;;;;;4151388;28;20282;-73
2022/11/03 09:23:20;;;;;;;7.65;3.10;;;19.90;99.90;;;;;;4151017;28;20270;-73
2022/11/03 09:25:25;;;;;;;6.55;3.30;;;19.90;99.90;;;;;;4154649;28;20225;-72
2022/11/03 09:27:27;;;;;;;10.40;3.10;;;19.90;99.90;;;;;;4145892;28;20229;-73
2022/11/03 09:29:29;;;;;;;9.77;4.28;;;19.90;99.90;;;;;;4134203;28;20225;-74
2022/11/03 09:31:32;;;;;;;9.02;3.80;;;19.90;99.90;;;;;;4143823;28;20218;-75
2022/11/03 09:33:34;;;;;;;8.93;3.45;;;19.90;99.90;;;;;;4144825;28;20267;-76
2022/11/03 09:35:36;;;;;;;9.25;3.33;;;20.00;99.90;;;;;;4144841;28;20241;-76
2022/11/03 09:37:40;;;;;;;8.07;3.42;;;19.90;99.90;;;;;;4138467;28;20279;-76
2022/11/03 09:39:42;;;;;;;6.78;3.35;;;20.00;99.90;;;;;;4144883;28;20258;-76
2022/11/03 09:41:45;;;;;;;9.93;2.92;;;20.00;99.90;;;;;;4145611;28;20221;-76
2022/11/03 09:43:47;;;;;;;9.73;3.30;;;20.00;99.90;;;;;;4143035;28;20263;-75
2022/11/03 09:45:50;;;;;;;8.38;3.35;;;20.00;99.90;;;;;;4147451;28;20221;-77
2022/11/03 09:47:52;;;;;;;7.95;3.70;;;19.90;99.90;;;;;;4149123;28;20231;-77
2022/11/03 09:49:54;;;;;;;9.80;3.60;;;19.90;99.90;;;;;;4143827;28;20217;-77
2022/11/03 09:51:57;;;;;;;7.32;3.30;;;20.00;99.90;;;;;;4147456;28;20221;-76
2022/11/03 09:54:04;;;;;;;11.50;4.10;;;20.00;99.90;;;;;;4146614;28;20217;-78
2022/11/03 09:56:09;;;;;;;8.25;3.60;;;20.10;99.90;;;;;;4144876;28;20241;-76
2022/11/03 09:58:15;;;;;;;9.77;4.05;;;20.20;99.90;;;;;;4135913;28;20256;-77
2022/11/03 10:00:20;;;;;;;12.52;4.00;;;20.20;99.90;;;;;;4143325;28;20213;-77
2022/11/03 10:02:27;;;;;;;7.70;4.10;;;20.40;99.90;;;;;;4147911;28;20961;-76
2022/11/03 10:04:31;;;;;;;7.80;3.78;;;20.50;99.90;;;;;;4136135;28;20225;-76
2022/11/03 10:06:33;;;;;;;10.10;3.80;;;20.60;99.90;;;;;;4144498;28;20209;-77
2022/11/03 10:08:38;;;;;;;9.68;4.07;;;20.60;99.90;;;;;;4141675;28;20225;-77
2022/11/03 10:10:42;;;;;;;16.52;4.20;;;20.50;99.90;;;;;;4138737;28;20268;-76
2022/11/03 10:12:45;;;;;;;10.25;3.83;;;20.70;99.90;;;;;;4142163;28;20248;-76
2022/11/03 10:14:48;;;;;;;9.95;3.95;;;20.70;99.90;;;;;;4135544;28;20221;-77
2022/11/03 10:16:53;;;;;;;11.77;3.78;;;20.80;99.90;;;;;;4140983;28;20233;-76
2022/11/03 10:18:55;;;;;;;10.23;3.97;;;20.90;99.90;;;;;;4141490;28;20225;-76
2022/11/03 10:21:03;;;;;;;11.02;4.68;;;21.00;99.90;;;;;;4141972;28;20608;-76
2022/11/03 10:23:06;;;;;;;7.05;4.15;;;21.00;99.90;;;;;;4144105;28;20228;-76
2022/11/03 10:25:36;;;;;;;9.10;4.07;;;21.00;99.90;;;;;;4142687;28;20246;-77
2022/11/03 10:27:40;;;;;;;11.55;4.13;;;21.00;99.90;;;;;;4145144;28;20259;-76
2022/11/03 10:29:42;;;;;;;11.55;4.30;;;21.10;99.90;;;;;;4140641;28;20651;-76
2022/11/03 10:31:48;;;;;;;10.50;4.28;;;21.00;99.90;;;;;;4140878;28;20225;-76
2022/11/03 10:33:52;;;;;;;8.35;4.32;;;21.10;99.90;;;;;;4143746;28;20214;-78
2022/11/03 10:35:57;;;;;;;7.78;4.32;;;21.10;99.90;;;;;;4139310;28;21002;-77
2022/11/03 10:38:24;;;;;;;10.23;4.85;;;21.10;99.90;;;;;;4142404;28;20220;-78
2022/11/03 10:40:35;;;;;;;13.50;4.60;;;21.10;99.90;;;;;;4142496;28;20216;-78
2022/11/03 10:42:37;;;;;;;7.80;4.38;;;21.10;99.90;;;;;;4150858;28;20719;-75
2022/11/03 10:44:41;;;;;;;13.00;5.15;;;21.10;99.90;;;;;;4148482;28;20275;-76
2022/11/03 10:47:00;;;;;;;9.75;4.47;;;21.20;99.90;;;;;;4145979;28;20213;-76
2022/11/03 10:49:04;;;;;;;11.60;4.75;;;21.20;99.90;;;;;;4146772;28;20213;-75
2022/11/03 10:51:12;;;;;;;8.82;4.28;;;21.20;99.90;;;;;;4146678;28;20648;-76
2022/11/03 10:53:18;;;;;;;13.13;4.97;;;21.20;99.90;;;;;;4146338;28;20266;-72
2022/11/03 10:55:23;;;;;;;10.63;4.75;;;21.20;99.90;;;;;;4136178;28;20217;-73
2022/11/03 10:57:27;;;;;;;14.77;4.47;;;21.10;99.90;;;;;;4140707;28;20646;-74
2022/11/03 10:59:35;;;;;;;9.75;4.57;;;21.10;99.90;;;;;;4142802;28;20221;-72
2022/11/03 11:01:39;;;;;;;10.52;4.80;;;21.20;99.90;;;;;;4141782;28;20271;-73
2022/11/03 11:03:43;;;;;;;12.98;5.15;;;21.20;99.90;;;;;;4144398;28;20232;-74
2022/11/03 11:05:47;;;;;;;10.32;4.90;;;21.30;99.90;;;;;;4136689;28;20213;-73